ACA892 CYYC-OMDB
Flight info
| Callsign | ACA892 |
|---|---|
| Flight time | N/A |
| Altitude | 33000 |
| Route | DCT VETBI DCT BORIX DCT 55N100W 6030N09000W 65N080W 6730N07000W/M085F330 DCT BOPUT DCT 69N060W 70N050W/M085F350 70N040W 6930N03000W 6830N02000W 66N010W DCT GUNPA/N0493F350 DCT RIVEX/N0487F370 DCT KOSEB DCT BINKA DCT LENOV DCT KENIN DCT DENAK DCT MAXOV DCT ARTAT UP975 ROKVA/N0487F390 UP975 EZS UL614 OTKEP UM688 RATVO M688 SIDAD P975 SESRU M677 VUTEB VUTEB4C |
| Aircraft | A35K/H-SDE2E3GHIJ3J4J5LM1ORWXY/LB1D1 |
Departure
| Time | 2026-05-06 01:03 |
|---|---|
| Airport | Calgary International Airport (CYYC) |
Arrival
| Time | N/A |
|---|---|
| Airport | Dubai International Airport (OMDB) |
| Time | Latitude | Longitude | Altitude | Speed | Heading |
|---|---|---|---|---|---|
| 2026-05-06 00:37 | 51.13234 | -114.01595 | 3545 ft | 0 kts | 56° |
| 2026-05-06 00:47 | 51.13228 | -114.01609 | 3545 ft | 2 kts | 61° |
| 2026-05-06 00:47 | 51.13226 | -114.01616 | 3543 ft | 2 kts | 61° |
| 2026-05-06 00:47 | 51.13219 | -114.01639 | 3539 ft | 2 kts | 68° |
| 2026-05-06 00:47 | 51.13214 | -114.01664 | 3541 ft | 2 kts | 81° |
| 2026-05-06 00:48 | 51.13213 | -114.01690 | 3542 ft | 2 kts | 105° |
| 2026-05-06 00:48 | 51.13221 | -114.01712 | 3540 ft | 2 kts | 144° |
| 2026-05-06 00:48 | 51.13231 | -114.01721 | 3542 ft | 1 kts | 173° |
| 2026-05-06 00:48 | 51.13232 | -114.01721 | 3542 ft | 0 kts | 177° |
| 2026-05-06 00:53 | 51.13226 | -114.01721 | 3543 ft | 4 kts | 177° |
| 2026-05-06 00:53 | 51.13181 | -114.01721 | 3544 ft | 9 kts | 180° |
| 2026-05-06 00:53 | 51.13120 | -114.01745 | 3541 ft | 9 kts | 208° |
| 2026-05-06 00:53 | 51.13061 | -114.01784 | 3541 ft | 9 kts | 192° |
| 2026-05-06 00:54 | 51.12964 | -114.01794 | 3542 ft | 16 kts | 179° |
| 2026-05-06 00:54 | 51.12852 | -114.01793 | 3546 ft | 16 kts | 181° |
| 2026-05-06 00:54 | 51.12745 | -114.01794 | 3547 ft | 15 kts | 180° |
| 2026-05-06 00:54 | 51.12643 | -114.01795 | 3547 ft | 14 kts | 180° |
| 2026-05-06 00:55 | 51.12547 | -114.01796 | 3546 ft | 14 kts | 180° |
| 2026-05-06 00:55 | 51.12420 | -114.01795 | 3550 ft | 20 kts | 180° |
| 2026-05-06 00:55 | 51.12284 | -114.01794 | 3550 ft | 19 kts | 180° |
| 2026-05-06 00:55 | 51.12158 | -114.01793 | 3555 ft | 18 kts | 180° |
| 2026-05-06 00:56 | 51.12041 | -114.01792 | 3557 ft | 16 kts | 180° |
| 2026-05-06 00:56 | 51.11934 | -114.01792 | 3558 ft | 15 kts | 180° |
| 2026-05-06 00:56 | 51.11834 | -114.01792 | 3556 ft | 14 kts | 181° |
| 2026-05-06 00:56 | 51.11738 | -114.01794 | 3554 ft | 14 kts | 180° |
| 2026-05-06 00:57 | 51.11640 | -114.01796 | 3559 ft | 14 kts | 181° |
| 2026-05-06 00:57 | 51.11541 | -114.01795 | 3559 ft | 14 kts | 180° |
| 2026-05-06 00:57 | 51.11443 | -114.01795 | 3560 ft | 14 kts | 180° |
| 2026-05-06 00:57 | 51.11347 | -114.01796 | 3555 ft | 14 kts | 181° |
| 2026-05-06 00:58 | 51.11253 | -114.01796 | 3561 ft | 14 kts | 180° |
| 2026-05-06 00:58 | 51.11136 | -114.01795 | 3555 ft | 17 kts | 180° |
| 2026-05-06 00:58 | 51.11018 | -114.01795 | 3561 ft | 17 kts | 180° |
| 2026-05-06 00:58 | 51.10890 | -114.01795 | 3561 ft | 19 kts | 180° |
| 2026-05-06 00:59 | 51.10761 | -114.01796 | 3560 ft | 18 kts | 180° |
| 2026-05-06 00:59 | 51.10640 | -114.01798 | 3559 ft | 17 kts | 180° |
| 2026-05-06 00:59 | 51.10526 | -114.01797 | 3561 ft | 16 kts | 179° |
| 2026-05-06 00:59 | 51.10413 | -114.01797 | 3560 ft | 21 kts | 180° |
| 2026-05-06 01:00 | 51.10241 | -114.01798 | 3562 ft | 25 kts | 180° |
| 2026-05-06 01:00 | 51.10068 | -114.01798 | 3562 ft | 24 kts | 180° |
| 2026-05-06 01:00 | 51.09904 | -114.01797 | 3567 ft | 23 kts | 180° |
| 2026-05-06 01:00 | 51.09754 | -114.01800 | 3565 ft | 20 kts | 191° |
| 2026-05-06 01:01 | 51.09694 | -114.01958 | 3568 ft | 17 kts | 264° |
| 2026-05-06 01:01 | 51.09694 | -114.02096 | 3573 ft | 6 kts | 283° |
| 2026-05-06 01:01 | 51.09728 | -114.02132 | 3571 ft | 6 kts | 347° |
| 2026-05-06 01:01 | 51.09774 | -114.02136 | 3573 ft | 5 kts | 359° |
| 2026-05-06 01:02 | 51.09821 | -114.02137 | 3567 ft | 18 kts | 359° |
| 2026-05-06 01:02 | 51.10179 | -114.02137 | 3562 ft | 86 kts | 0° |
| 2026-05-06 01:02 | 51.10994 | -114.02136 | 3558 ft | 146 kts | 0° |
| 2026-05-06 01:02 | 51.12192 | -114.02136 | 3641 ft | 190 kts | 0° |
| 2026-05-06 01:03 | 51.13510 | -114.02158 | 4366 ft | 193 kts | 1° |
| 2026-05-06 01:03 | 51.14859 | -114.02190 | 5197 ft | 194 kts | 1° |
| 2026-05-06 01:03 | 51.16219 | -114.02304 | 6003 ft | 188 kts | 358° |
| 2026-05-06 01:03 | 51.17486 | -114.02461 | 6610 ft | 178 kts | 358° |
| 2026-05-06 01:04 | 51.18676 | -114.02588 | 7141 ft | 169 kts | 360° |
| 2026-05-06 01:04 | 51.19859 | -114.02275 | 7383 ft | 180 kts | 20° |
| 2026-05-06 01:04 | 51.20861 | -114.00981 | 7500 ft | 197 kts | 56° |
| 2026-05-06 01:04 | 51.21347 | -113.98849 | 7659 ft | 215 kts | 76° |
| 2026-05-06 01:05 | 51.21461 | -113.97204 | 7811 ft | 227 kts | 84° |
| 2026-05-06 01:05 | 51.21393 | -113.93718 | 8090 ft | 249 kts | 91° |
| 2026-05-06 01:05 | 51.21236 | -113.90865 | 8286 ft | 267 kts | 92° |
| 2026-05-06 01:05 | 51.21126 | -113.88835 | 8477 ft | 276 kts | 91° |
| 2026-05-06 01:06 | 51.20986 | -113.85726 | 8924 ft | 284 kts | 90° |
| 2026-05-06 01:06 | 51.20882 | -113.82548 | 9457 ft | 290 kts | 88° |
| 2026-05-06 01:06 | 51.20807 | -113.79301 | 9998 ft | 296 kts | 87° |
| 2026-05-06 01:06 | 51.20753 | -113.75965 | 10372 ft | 308 kts | 86° |
| 2026-05-06 01:07 | 51.20710 | -113.72473 | 10640 ft | 323 kts | 86° |
| 2026-05-06 01:07 | 51.20667 | -113.68807 | 10914 ft | 338 kts | 86° |
| 2026-05-06 01:07 | 51.20618 | -113.64986 | 11188 ft | 352 kts | 86° |
| 2026-05-06 01:07 | 51.20562 | -113.61006 | 11479 ft | 366 kts | 86° |
| 2026-05-06 01:08 | 51.20498 | -113.56881 | 11764 ft | 379 kts | 87° |
| 2026-05-06 01:08 | 51.20428 | -113.52615 | 12049 ft | 390 kts | 87° |
| 2026-05-06 01:08 | 51.20351 | -113.48264 | 12549 ft | 396 kts | 86° |
| 2026-05-06 01:08 | 51.20448 | -113.43885 | 13129 ft | 394 kts | 79° |
| 2026-05-06 01:09 | 51.20945 | -113.39609 | 13767 ft | 391 kts | 71° |
| 2026-05-06 01:09 | 51.21680 | -113.35417 | 14286 ft | 393 kts | 68° |
| 2026-05-06 01:09 | 51.22532 | -113.31285 | 14842 ft | 393 kts | 65° |
| 2026-05-06 01:09 | 51.23441 | -113.27177 | 15439 ft | 392 kts | 64° |
| 2026-05-06 01:10 | 51.24366 | -113.23091 | 16010 ft | 392 kts | 63° |
| 2026-05-06 01:10 | 51.25292 | -113.18991 | 16567 ft | 393 kts | 63° |
| 2026-05-06 01:10 | 51.26210 | -113.14872 | 17126 ft | 394 kts | 63° |
| 2026-05-06 01:10 | 51.27118 | -113.10745 | 17691 ft | 395 kts | 63° |
| 2026-05-06 01:11 | 51.28022 | -113.06589 | 18268 ft | 396 kts | 62° |
| 2026-05-06 01:11 | 51.28921 | -113.02426 | 18751 ft | 398 kts | 62° |
| 2026-05-06 01:11 | 51.29828 | -112.98224 | 19083 ft | 404 kts | 63° |
| 2026-05-06 01:11 | 51.30752 | -112.93940 | 19411 ft | 409 kts | 63° |
| 2026-05-06 01:12 | 51.31675 | -112.89641 | 19849 ft | 411 kts | 63° |
| 2026-05-06 01:12 | 51.32601 | -112.85306 | 20311 ft | 413 kts | 63° |
| 2026-05-06 01:12 | 51.33530 | -112.80935 | 20783 ft | 416 kts | 63° |
| 2026-05-06 01:12 | 51.34463 | -112.76546 | 21187 ft | 418 kts | 63° |
| 2026-05-06 01:13 | 51.35395 | -112.72148 | 21665 ft | 417 kts | 63° |
| 2026-05-06 01:13 | 51.36334 | -112.67728 | 22023 ft | 423 kts | 63° |
| 2026-05-06 01:13 | 51.37283 | -112.63252 | 22437 ft | 426 kts | 63° |
| 2026-05-06 01:13 | 51.38222 | -112.58803 | 22917 ft | 429 kts | 63° |
| 2026-05-06 01:14 | 51.40119 | -112.49756 | 24026 ft | 429 kts | 62° |
| 2026-05-06 01:14 | 51.41070 | -112.45211 | 24398 ft | 431 kts | 62° |
| 2026-05-06 01:14 | 51.42029 | -112.40640 | 24725 ft | 434 kts | 62° |
| 2026-05-06 01:15 | 51.42991 | -112.36037 | 25082 ft | 437 kts | 62° |
| 2026-05-06 01:15 | 51.43954 | -112.31407 | 25445 ft | 439 kts | 62° |
| 2026-05-06 01:15 | 51.44921 | -112.26753 | 25816 ft | 441 kts | 62° |
| 2026-05-06 01:15 | 51.45889 | -112.22080 | 26195 ft | 443 kts | 62° |
| 2026-05-06 01:16 | 51.46860 | -112.17378 | 26563 ft | 445 kts | 62° |
| 2026-05-06 01:16 | 51.47835 | -112.12651 | 26962 ft | 447 kts | 62° |
| 2026-05-06 01:16 | 51.48805 | -112.07929 | 27440 ft | 446 kts | 62° |
| 2026-05-06 01:16 | 51.49776 | -112.03192 | 27771 ft | 448 kts | 62° |
| 2026-05-06 01:17 | 51.50753 | -111.98429 | 28092 ft | 451 kts | 62° |
| 2026-05-06 01:17 | 51.51734 | -111.93637 | 28394 ft | 453 kts | 62° |
| 2026-05-06 01:17 | 51.52716 | -111.88824 | 28691 ft | 455 kts | 62° |
| 2026-05-06 01:17 | 51.53702 | -111.83975 | 28985 ft | 457 kts | 62° |
| 2026-05-06 01:18 | 51.54684 | -111.79124 | 29382 ft | 456 kts | 62° |
| 2026-05-06 01:18 | 51.55660 | -111.74277 | 29835 ft | 455 kts | 62° |
| 2026-05-06 01:18 | 51.56630 | -111.69449 | 30252 ft | 454 kts | 61° |
| 2026-05-06 01:18 | 51.57591 | -111.64648 | 30761 ft | 449 kts | 61° |
| 2026-05-06 01:19 | 51.58544 | -111.59877 | 31162 ft | 447 kts | 60° |
| 2026-05-06 01:19 | 51.59496 | -111.55127 | 31417 ft | 447 kts | 60° |
| 2026-05-06 01:19 | 51.60438 | -111.50428 | 31677 ft | 447 kts | 60° |
| 2026-05-06 01:19 | 51.61400 | -111.45615 | 31945 ft | 446 kts | 60° |
| 2026-05-06 01:20 | 51.62345 | -111.40868 | 32208 ft | 446 kts | 60° |
| 2026-05-06 01:20 | 51.63290 | -111.36110 | 32479 ft | 445 kts | 60° |
| 2026-05-06 01:20 | 51.64227 | -111.31376 | 32738 ft | 444 kts | 60° |
| 2026-05-06 01:20 | 51.65162 | -111.26639 | 32973 ft | 444 kts | 60° |
| 2026-05-06 01:21 | 51.66082 | -111.21970 | 33217 ft | 445 kts | 60° |
| 2026-05-06 01:21 | 51.67035 | -111.17141 | 33248 ft | 449 kts | 60° |
| 2026-05-06 01:21 | 51.68906 | -111.07597 | 33240 ft | 450 kts | 61° |
| 2026-05-06 01:22 | 51.70775 | -110.97977 | 33245 ft | 449 kts | 61° |
| 2026-05-06 01:22 | 51.72633 | -110.88370 | 33241 ft | 449 kts | 61° |
| 2026-05-06 01:23 | 51.74504 | -110.78665 | 33270 ft | 450 kts | 61° |
| 2026-05-06 01:23 | 51.76345 | -110.69076 | 33236 ft | 451 kts | 62° |
| 2026-05-06 01:24 | 51.78194 | -110.59387 | 33232 ft | 452 kts | 62° |
| 2026-05-06 01:24 | 51.80032 | -110.49692 | 33231 ft | 452 kts | 62° |
| 2026-05-06 01:25 | 51.81864 | -110.39985 | 33226 ft | 452 kts | 62° |
| 2026-05-06 01:25 | 51.83690 | -110.30270 | 33230 ft | 452 kts | 62° |
| 2026-05-06 01:26 | 51.85514 | -110.20523 | 33230 ft | 453 kts | 62° |
| 2026-05-06 01:26 | 51.87329 | -110.10753 | 33229 ft | 453 kts | 62° |
| 2026-05-06 01:27 | 51.89279 | -110.01107 | 33227 ft | 444 kts | 56° |
| 2026-05-06 01:27 | 51.92140 | -109.92456 | 33227 ft | 433 kts | 50° |
| 2026-05-06 01:28 | 51.95256 | -109.84115 | 33233 ft | 432 kts | 49° |
| 2026-05-06 01:28 | 51.98410 | -109.75801 | 33230 ft | 433 kts | 49° |
| 2026-05-06 01:29 | 52.01551 | -109.67457 | 33227 ft | 433 kts | 49° |
| 2026-05-06 01:29 | 52.04674 | -109.59090 | 33228 ft | 433 kts | 49° |
| 2026-05-06 01:30 | 52.07788 | -109.50708 | 33230 ft | 433 kts | 49° |
| 2026-05-06 01:30 | 52.10898 | -109.42309 | 33230 ft | 433 kts | 49° |
| 2026-05-06 01:31 | 52.14003 | -109.33898 | 33221 ft | 434 kts | 49° |
| 2026-05-06 01:31 | 52.17103 | -109.25472 | 33230 ft | 434 kts | 49° |
| 2026-05-06 01:32 | 52.20196 | -109.17040 | 33230 ft | 434 kts | 49° |
| 2026-05-06 01:32 | 52.23286 | -109.08590 | 33255 ft | 434 kts | 49° |
| 2026-05-06 01:33 | 52.26374 | -109.00116 | 33227 ft | 435 kts | 50° |
| 2026-05-06 01:33 | 52.29461 | -108.91615 | 33228 ft | 435 kts | 50° |
| 2026-05-06 01:34 | 52.32522 | -108.83153 | 33230 ft | 435 kts | 50° |
| 2026-05-06 01:34 | 52.35596 | -108.74627 | 33230 ft | 435 kts | 50° |
| 2026-05-06 01:35 | 52.38668 | -108.66079 | 33287 ft | 436 kts | 50° |
| 2026-05-06 01:35 | 52.41748 | -108.57491 | 33232 ft | 440 kts | 51° |
| 2026-05-06 01:36 | 52.44843 | -108.48823 | 33230 ft | 441 kts | 51° |
| 2026-05-06 01:36 | 52.47933 | -108.40132 | 33230 ft | 441 kts | 51° |
| 2026-05-06 01:37 | 52.51015 | -108.31433 | 33227 ft | 441 kts | 51° |
| 2026-05-06 01:37 | 52.54092 | -108.22724 | 33251 ft | 441 kts | 52° |
| 2026-05-06 01:38 | 52.57192 | -108.13933 | 33230 ft | 448 kts | 52° |
| 2026-05-06 01:38 | 52.60312 | -108.05042 | 33228 ft | 449 kts | 52° |
| 2026-05-06 01:39 | 52.63418 | -107.96137 | 33223 ft | 447 kts | 51° |
| 2026-05-06 01:39 | 52.66496 | -107.87287 | 33229 ft | 445 kts | 51° |
| 2026-05-06 01:40 | 52.69572 | -107.78437 | 33243 ft | 446 kts | 52° |
| 2026-05-06 01:40 | 52.72679 | -107.69480 | 33224 ft | 452 kts | 52° |
| 2026-05-06 01:41 | 52.78537 | -107.52436 | 33222 ft | 453 kts | 53° |
| 2026-05-06 01:42 | 52.81634 | -107.43382 | 33218 ft | 453 kts | 53° |
| 2026-05-06 01:42 | 52.84734 | -107.34298 | 33216 ft | 455 kts | 54° |
| 2026-05-06 01:43 | 52.87861 | -107.25106 | 33214 ft | 460 kts | 54° |
| 2026-05-06 01:43 | 52.90990 | -107.15855 | 33213 ft | 460 kts | 54° |
| 2026-05-06 01:44 | 52.94110 | -107.06597 | 33214 ft | 460 kts | 54° |
| 2026-05-06 01:44 | 52.97224 | -106.97325 | 33213 ft | 460 kts | 54° |
| 2026-05-06 01:45 | 53.00344 | -106.88005 | 33217 ft | 464 kts | 55° |
| 2026-05-06 01:45 | 53.03486 | -106.78588 | 33208 ft | 467 kts | 55° |
| 2026-05-06 01:46 | 53.06621 | -106.69142 | 33205 ft | 467 kts | 55° |
| 2026-05-06 01:46 | 53.09743 | -106.59691 | 33210 ft | 465 kts | 55° |
| 2026-05-06 01:47 | 53.12846 | -106.50277 | 33222 ft | 464 kts | 56° |
| 2026-05-06 01:47 | 53.15963 | -106.40797 | 33203 ft | 468 kts | 56° |
| 2026-05-06 01:48 | 53.19065 | -106.31317 | 33200 ft | 469 kts | 56° |
| 2026-05-06 01:48 | 53.22177 | -106.21760 | 33199 ft | 469 kts | 56° |
| 2026-05-06 01:49 | 53.25286 | -106.12177 | 33198 ft | 469 kts | 56° |
| 2026-05-06 01:49 | 53.28390 | -106.02576 | 33200 ft | 470 kts | 57° |
| 2026-05-06 01:50 | 53.31504 | -105.92905 | 33151 ft | 474 kts | 57° |
| 2026-05-06 01:50 | 53.34619 | -105.83189 | 33146 ft | 474 kts | 57° |
| 2026-05-06 01:51 | 53.37726 | -105.73459 | 33147 ft | 474 kts | 57° |
| 2026-05-06 01:51 | 53.40826 | -105.63713 | 33154 ft | 474 kts | 57° |
| 2026-05-06 01:52 | 53.43927 | -105.53931 | 33195 ft | 477 kts | 57° |
| 2026-05-06 01:52 | 53.47031 | -105.44096 | 33194 ft | 477 kts | 58° |
| 2026-05-06 01:53 | 53.50132 | -105.34227 | 33195 ft | 477 kts | 58° |
| 2026-05-06 01:53 | 53.53217 | -105.24366 | 33192 ft | 477 kts | 57° |
| 2026-05-06 01:54 | 53.56294 | -105.14493 | 33191 ft | 476 kts | 57° |
| 2026-05-06 01:54 | 53.59364 | -105.04608 | 33189 ft | 476 kts | 58° |
| 2026-05-06 01:55 | 53.62425 | -104.94709 | 33192 ft | 476 kts | 58° |
| 2026-05-06 01:55 | 53.65476 | -104.84803 | 33190 ft | 477 kts | 58° |
| 2026-05-06 01:56 | 53.68519 | -104.74877 | 33189 ft | 477 kts | 58° |
| 2026-05-06 01:56 | 53.71559 | -104.64923 | 33178 ft | 479 kts | 58° |
| 2026-05-06 01:57 | 53.74607 | -104.54902 | 33178 ft | 480 kts | 58° |
| 2026-05-06 01:57 | 53.77629 | -104.44921 | 33178 ft | 480 kts | 58° |
| 2026-05-06 01:58 | 53.80664 | -104.34855 | 33186 ft | 480 kts | 59° |
| 2026-05-06 01:58 | 53.83687 | -104.24786 | 33207 ft | 480 kts | 59° |
| 2026-05-06 01:59 | 53.86716 | -104.14660 | 33176 ft | 483 kts | 59° |
| 2026-05-06 01:59 | 53.89743 | -104.04493 | 33178 ft | 483 kts | 59° |
| 2026-05-06 02:00 | 53.92759 | -103.94314 | 33169 ft | 483 kts | 59° |
| 2026-05-06 02:00 | 53.95766 | -103.84124 | 33174 ft | 483 kts | 59° |
| 2026-05-06 02:01 | 53.98767 | -103.73916 | 33174 ft | 483 kts | 60° |
| 2026-05-06 02:01 | 54.01769 | -103.63661 | 33170 ft | 485 kts | 60° |
| 2026-05-06 02:02 | 54.04764 | -103.53380 | 33168 ft | 485 kts | 60° |
| 2026-05-06 02:02 | 54.07750 | -103.43087 | 33168 ft | 485 kts | 60° |
| 2026-05-06 02:03 | 54.10728 | -103.32773 | 33160 ft | 485 kts | 60° |
| 2026-05-06 02:03 | 54.13699 | -103.22443 | 33173 ft | 486 kts | 60° |
| 2026-05-06 02:04 | 54.16667 | -103.12078 | 33149 ft | 486 kts | 60° |
| 2026-05-06 02:04 | 54.19626 | -103.01691 | 33162 ft | 486 kts | 60° |
| 2026-05-06 02:05 | 54.22575 | -102.91300 | 33161 ft | 486 kts | 60° |
| 2026-05-06 02:05 | 54.25516 | -102.80888 | 33156 ft | 486 kts | 61° |
| 2026-05-06 02:06 | 54.28448 | -102.70461 | 33156 ft | 486 kts | 61° |
| 2026-05-06 02:06 | 54.31372 | -102.60019 | 33156 ft | 486 kts | 61° |
| 2026-05-06 02:07 | 54.34286 | -102.49562 | 33158 ft | 486 kts | 61° |
| 2026-05-06 02:07 | 54.37189 | -102.39098 | 33157 ft | 486 kts | 61° |
| 2026-05-06 02:08 | 54.40089 | -102.28601 | 33162 ft | 487 kts | 62° |
| 2026-05-06 02:08 | 54.42980 | -102.18084 | 33157 ft | 487 kts | 62° |
| 2026-05-06 02:09 | 54.45859 | -102.07560 | 33163 ft | 487 kts | 62° |
| 2026-05-06 02:09 | 54.48734 | -101.97009 | 33159 ft | 487 kts | 62° |
| 2026-05-06 02:10 | 54.51578 | -101.86520 | 33181 ft | 487 kts | 62° |
| 2026-05-06 02:10 | 54.54432 | -101.75945 | 33159 ft | 487 kts | 62° |
| 2026-05-06 02:11 | 54.57280 | -101.65345 | 33159 ft | 487 kts | 62° |
| 2026-05-06 02:11 | 54.60117 | -101.54736 | 33159 ft | 487 kts | 62° |
| 2026-05-06 02:12 | 54.62946 | -101.44107 | 33156 ft | 487 kts | 62° |
| 2026-05-06 02:12 | 54.65766 | -101.33464 | 33159 ft | 487 kts | 62° |
| 2026-05-06 02:13 | 54.68579 | -101.22797 | 33157 ft | 488 kts | 63° |
| 2026-05-06 02:13 | 54.71380 | -101.12124 | 33157 ft | 488 kts | 63° |
| 2026-05-06 02:14 | 54.74174 | -101.01427 | 33151 ft | 488 kts | 63° |
| 2026-05-06 02:14 | 54.76957 | -100.90722 | 33151 ft | 488 kts | 63° |
| 2026-05-06 02:15 | 54.79731 | -100.79999 | 33154 ft | 487 kts | 63° |
| 2026-05-06 02:15 | 54.82493 | -100.69273 | 33154 ft | 487 kts | 63° |
| 2026-05-06 02:16 | 54.85248 | -100.58523 | 33151 ft | 487 kts | 63° |
| 2026-05-06 02:16 | 54.87991 | -100.47765 | 33151 ft | 488 kts | 63° |
| 2026-05-06 02:17 | 54.90727 | -100.36987 | 33151 ft | 487 kts | 63° |
| 2026-05-06 02:17 | 54.93451 | -100.26200 | 33152 ft | 487 kts | 63° |
| 2026-05-06 02:18 | 54.96168 | -100.15388 | 33154 ft | 488 kts | 63° |
| 2026-05-06 02:18 | 54.99018 | -100.04706 | 33152 ft | 485 kts | 57° |
| 2026-05-06 02:19 | 55.03152 | -99.95595 | 33153 ft | 478 kts | 40° |
| 2026-05-06 02:19 | 55.08133 | -99.87928 | 33168 ft | 477 kts | 38° |
| 2026-05-06 02:20 | 55.15776 | -99.76780 | 33151 ft | 477 kts | 38° |
| 2026-05-06 02:21 | 55.20863 | -99.69307 | 33154 ft | 477 kts | 38° |
| 2026-05-06 02:21 | 55.25899 | -99.61837 | 33154 ft | 477 kts | 38° |
| 2026-05-06 02:22 | 55.30957 | -99.54296 | 33156 ft | 477 kts | 38° |
| 2026-05-06 02:22 | 55.36014 | -99.46729 | 33157 ft | 477 kts | 38° |
| 2026-05-06 02:23 | 55.41065 | -99.39147 | 33156 ft | 477 kts | 38° |
| 2026-05-06 02:23 | 55.46111 | -99.31548 | 33158 ft | 478 kts | 38° |
| 2026-05-06 02:24 | 55.50308 | -99.25206 | 33160 ft | 478 kts | 38° |
| 2026-05-06 02:24 | 55.55351 | -99.17563 | 33154 ft | 478 kts | 39° |
| 2026-05-06 02:25 | 55.60387 | -99.09903 | 33155 ft | 478 kts | 39° |
| 2026-05-06 02:25 | 55.65425 | -99.02213 | 33161 ft | 478 kts | 39° |
| 2026-05-06 02:26 | 55.70456 | -98.94507 | 33153 ft | 478 kts | 39° |
| 2026-05-06 02:26 | 55.75482 | -98.86779 | 33154 ft | 478 kts | 39° |
| 2026-05-06 02:27 | 55.80508 | -98.79027 | 33154 ft | 478 kts | 39° |
| 2026-05-06 02:27 | 55.85523 | -98.71261 | 33155 ft | 479 kts | 39° |
| 2026-05-06 02:28 | 55.90542 | -98.63464 | 33156 ft | 478 kts | 39° |
| 2026-05-06 02:28 | 55.95552 | -98.55652 | 33149 ft | 478 kts | 39° |
| 2026-05-06 02:29 | 56.00556 | -98.47821 | 33156 ft | 479 kts | 39° |
| 2026-05-06 02:29 | 56.05566 | -98.39953 | 33153 ft | 479 kts | 39° |
| 2026-05-06 02:30 | 56.10575 | -98.32058 | 33152 ft | 480 kts | 39° |
| 2026-05-06 02:30 | 56.15576 | -98.24147 | 33157 ft | 480 kts | 39° |
| 2026-05-06 02:31 | 56.20574 | -98.16211 | 33152 ft | 480 kts | 39° |
| 2026-05-06 02:31 | 56.25569 | -98.08254 | 33152 ft | 480 kts | 40° |
| 2026-05-06 02:32 | 56.30555 | -98.00280 | 33152 ft | 480 kts | 40° |
| 2026-05-06 02:32 | 56.35546 | -97.92270 | 33149 ft | 481 kts | 40° |
| 2026-05-06 02:33 | 56.40544 | -97.84220 | 33148 ft | 481 kts | 40° |
| 2026-05-06 02:33 | 56.42198 | -97.81549 | 33149 ft | 481 kts | 40° |
| 2026-05-06 02:34 | 56.50524 | -97.68054 | 33149 ft | 482 kts | 40° |
| 2026-05-06 02:34 | 56.55506 | -97.59940 | 33145 ft | 482 kts | 40° |
| 2026-05-06 02:35 | 56.60480 | -97.51808 | 33152 ft | 482 kts | 40° |
| 2026-05-06 02:35 | 56.65460 | -97.43633 | 33143 ft | 483 kts | 40° |
| 2026-05-06 02:36 | 56.70448 | -97.35421 | 33144 ft | 483 kts | 40° |
| 2026-05-06 02:36 | 56.75423 | -97.27196 | 33146 ft | 483 kts | 40° |
| 2026-05-06 02:37 | 56.80398 | -97.18941 | 33140 ft | 483 kts | 41° |
| 2026-05-06 02:37 | 56.85370 | -97.10659 | 33140 ft | 483 kts | 41° |
| 2026-05-06 02:38 | 56.90332 | -97.02365 | 33142 ft | 484 kts | 41° |
| 2026-05-06 02:38 | 56.95297 | -96.94034 | 33135 ft | 485 kts | 41° |
| 2026-05-06 02:39 | 57.00264 | -96.85665 | 33141 ft | 485 kts | 41° |
| 2026-05-06 02:39 | 57.05224 | -96.77278 | 33129 ft | 485 kts | 41° |
| 2026-05-06 02:40 | 57.10180 | -96.68866 | 33134 ft | 485 kts | 41° |
| 2026-05-06 02:40 | 57.15094 | -96.60493 | 33127 ft | 485 kts | 41° |
| 2026-05-06 02:41 | 57.20037 | -96.52040 | 33140 ft | 485 kts | 41° |
| 2026-05-06 02:41 | 57.24972 | -96.43567 | 33129 ft | 485 kts | 41° |
| 2026-05-06 02:42 | 57.29913 | -96.35050 | 33127 ft | 486 kts | 42° |
| 2026-05-06 02:42 | 57.34846 | -96.26514 | 33127 ft | 485 kts | 42° |
| 2026-05-06 02:43 | 57.39776 | -96.17952 | 33121 ft | 485 kts | 42° |
| 2026-05-06 02:43 | 57.44696 | -96.09372 | 33122 ft | 486 kts | 42° |
| 2026-05-06 02:44 | 57.49615 | -96.00763 | 33127 ft | 486 kts | 42° |
| 2026-05-06 02:44 | 57.54523 | -95.92140 | 33118 ft | 484 kts | 42° |
| 2026-05-06 02:45 | 57.59411 | -95.83518 | 33120 ft | 483 kts | 42° |
| 2026-05-06 02:45 | 57.64285 | -95.74886 | 33121 ft | 483 kts | 42° |
| 2026-05-06 02:46 | 57.69156 | -95.66225 | 33123 ft | 484 kts | 42° |
| 2026-05-06 02:46 | 57.74020 | -95.57542 | 33119 ft | 484 kts | 42° |
| 2026-05-06 02:47 | 57.78886 | -95.48827 | 33116 ft | 484 kts | 42° |